sensor_id;sensor_type;location;lat;lon;timestamp;P1;durP1;ratioP1;P2;durP2;ratioP2
31818;SDS011;18384;48.860;9.188;2022-09-09T00:01:52;7.87;;;1.98;;
31818;SDS011;18384;48.860;9.188;2022-09-09T00:04:45;7.93;;;1.40;;
31818;SDS011;18384;48.860;9.188;2022-09-09T00:07:51;7.83;;;2.13;;
31818;SDS011;18384;48.860;9.188;2022-09-09T00:10:21;9.70;;;1.60;;
31818;SDS011;18384;48.860;9.188;2022-09-09T00:16:10;11.40;;;2.25;;
31818;SDS011;18384;48.860;9.188;2022-09-09T00:21:37;11.73;;;2.00;;
31818;SDS011;18384;48.860;9.188;2022-09-09T00:29:23;8.25;;;2.08;;
31818;SDS011;18384;48.860;9.188;2022-09-09T00:32:16;11.10;;;1.80;;
31818;SDS011;18384;48.860;9.188;2022-09-09T00:34:48;8.02;;;1.58;;
31818;SDS011;18384;48.860;9.188;2022-09-09T00:37:37;7.37;;;1.50;;
31818;SDS011;18384;48.860;9.188;2022-09-09T00:40:11;3.72;;;1.30;;
31818;SDS011;18384;48.860;9.188;2022-09-09T00:43:05;4.18;;;1.30;;
31818;SDS011;18384;48.860;9.188;2022-09-09T00:45:59;13.40;;;1.70;;
31818;SDS011;18384;48.860;9.188;2022-09-09T00:49:15;9.50;;;1.30;;
31818;SDS011;18384;48.860;9.188;2022-09-09T00:53:24;5.22;;;1.12;;
31818;SDS011;18384;48.860;9.188;2022-09-09T00:56:42;10.32;;;1.60;;
31818;SDS011;18384;48.860;9.188;2022-09-09T00:59:48;15.48;;;3.28;;
31818;SDS011;18384;48.860;9.188;2022-09-09T01:02:45;4.85;;;1.75;;
31818;SDS011;18384;48.860;9.188;2022-09-09T01:10:14;6.00;;;1.20;;
31818;SDS011;18384;48.860;9.188;2022-09-09T01:13:28;7.95;;;1.73;;
31818;SDS011;18384;48.860;9.188;2022-09-09T01:15:59;8.45;;;1.27;;
31818;SDS011;18384;48.860;9.188;2022-09-09T01:18:29;5.68;;;1.15;;
31818;SDS011;18384;48.860;9.188;2022-09-09T01:21:07;6.15;;;1.25;;
31818;SDS011;18384;48.860;9.188;2022-09-09T01:24:38;4.03;;;1.12;;
31818;SDS011;18384;48.860;9.188;2022-09-09T01:27:35;9.15;;;1.42;;
31818;SDS011;18384;48.860;9.188;2022-09-09T01:30:07;4.03;;;1.42;;
31818;SDS011;18384;48.860;9.188;2022-09-09T01:32:38;6.45;;;1.08;;
31818;SDS011;18384;48.860;9.188;2022-09-09T01:38:43;5.10;;;1.48;;
31818;SDS011;18384;48.860;9.188;2022-09-09T01:41:09;6.07;;;1.20;;
31818;SDS011;18384;48.860;9.188;2022-09-09T01:43:35;5.43;;;1.27;;
31818;SDS011;18384;48.860;9.188;2022-09-09T01:46:01;8.57;;;1.30;;
31818;SDS011;18384;48.860;9.188;2022-09-09T01:48:28;6.30;;;1.60;;
31818;SDS011;18384;48.860;9.188;2022-09-09T01:50:55;4.40;;;1.00;;
31818;SDS011;18384;48.860;9.188;2022-09-09T01:55:58;3.83;;;1.20;;
31818;SDS011;18384;48.860;9.188;2022-09-09T01:58:45;8.70;;;1.55;;
31818;SDS011;18384;48.860;9.188;2022-09-09T02:03:23;5.25;;;1.20;;
31818;SDS011;18384;48.860;9.188;2022-09-09T02:09:00;4.07;;;1.33;;
31818;SDS011;18384;48.860;9.188;2022-09-09T02:11:30;6.90;;;1.12;;
31818;SDS011;18384;48.860;9.188;2022-09-09T02:14:00;6.20;;;1.42;;
31818;SDS011;18384;48.860;9.188;2022-09-09T02:16:48;3.28;;;1.25;;
31818;SDS011;18384;48.860;9.188;2022-09-09T02:21:56;4.18;;;1.10;;
31818;SDS011;18384;48.860;9.188;2022-09-09T02:24:25;6.57;;;0.90;;
31818;SDS011;18384;48.860;9.188;2022-09-09T02:26:55;3.65;;;0.90;;
31818;SDS011;18384;48.860;9.188;2022-09-09T02:29:31;4.93;;;1.05;;
31818;SDS011;18384;48.860;9.188;2022-09-09T02:32:03;5.28;;;1.00;;
31818;SDS011;18384;48.860;9.188;2022-09-09T02:34:36;4.45;;;0.98;;
31818;SDS011;18384;48.860;9.188;2022-09-09T02:37:08;3.58;;;0.90;;
31818;SDS011;18384;48.860;9.188;2022-09-09T02:39:36;8.40;;;1.00;;
31818;SDS011;18384;48.860;9.188;2022-09-09T02:42:03;5.87;;;1.17;;
31818;SDS011;18384;48.860;9.188;2022-09-09T02:44:30;4.95;;;1.25;;
31818;SDS011;18384;48.860;9.188;2022-09-09T02:50:12;3.37;;;1.05;;
31818;SDS011;18384;48.860;9.188;2022-09-09T02:52:59;1.62;;;0.77;;
31818;SDS011;18384;48.860;9.188;2022-09-09T02:57:22;8.50;;;2.67;;
31818;SDS011;18384;48.860;9.188;2022-09-09T02:59:53;5.50;;;0.80;;
31818;SDS011;18384;48.860;9.188;2022-09-09T03:02:22;5.12;;;0.90;;
31818;SDS011;18384;48.860;9.188;2022-09-09T03:04:49;3.12;;;0.73;;
31818;SDS011;18384;48.860;9.188;2022-09-09T03:07:20;5.20;;;1.10;;
31818;SDS011;18384;48.860;9.188;2022-09-09T03:09:46;3.87;;;0.98;;
31818;SDS011;18384;48.860;9.188;2022-09-09T03:12:13;4.43;;;0.80;;
31818;SDS011;18384;48.860;9.188;2022-09-09T03:14:39;5.65;;;0.90;;
31818;SDS011;18384;48.860;9.188;2022-09-09T03:17:05;4.85;;;0.85;;
31818;SDS011;18384;48.860;9.188;2022-09-09T03:21:58;2.45;;;0.82;;
31818;SDS011;18384;48.860;9.188;2022-09-09T03:24:24;7.62;;;1.00;;
31818;SDS011;18384;48.860;9.188;2022-09-09T03:26:51;5.82;;;0.90;;
31818;SDS011;18384;48.860;9.188;2022-09-09T03:29:17;7.53;;;1.80;;
31818;SDS011;18384;48.860;9.188;2022-09-09T03:31:43;5.68;;;1.67;;
31818;SDS011;18384;48.860;9.188;2022-09-09T03:34:10;8.18;;;1.75;;
31818;SDS011;18384;48.860;9.188;2022-09-09T03:36:36;9.45;;;1.73;;
31818;SDS011;18384;48.860;9.188;2022-09-09T03:41:29;8.38;;;1.95;;
31818;SDS011;18384;48.860;9.188;2022-09-09T03:43:56;4.05;;;1.50;;
31818;SDS011;18384;48.860;9.188;2022-09-09T03:46:22;5.20;;;1.45;;
31818;SDS011;18384;48.860;9.188;2022-09-09T03:48:50;7.68;;;1.60;;
31818;SDS011;18384;48.860;9.188;2022-09-09T03:51:20;7.90;;;1.48;;
31818;SDS011;18384;48.860;9.188;2022-09-09T03:53:47;3.92;;;1.17;;
31818;SDS011;18384;48.860;9.188;2022-09-09T03:56:13;5.55;;;1.37;;
31818;SDS011;18384;48.860;9.188;2022-09-09T03:58:39;8.13;;;1.15;;
31818;SDS011;18384;48.860;9.188;2022-09-09T04:01:07;8.27;;;1.40;;
31818;SDS011;18384;48.860;9.188;2022-09-09T04:03:38;8.55;;;1.37;;
31818;SDS011;18384;48.860;9.188;2022-09-09T04:06:05;6.72;;;1.48;;
31818;SDS011;18384;48.860;9.188;2022-09-09T04:08:34;7.05;;;1.60;;
31818;SDS011;18384;48.860;9.188;2022-09-09T04:11:01;4.18;;;1.20;;
31818;SDS011;18384;48.860;9.188;2022-09-09T04:13:31;7.72;;;1.45;;
31818;SDS011;18384;48.860;9.188;2022-09-09T04:16:04;6.72;;;1.65;;
31818;SDS011;18384;48.860;9.188;2022-09-09T04:18:31;6.20;;;1.48;;
31818;SDS011;18384;48.860;9.188;2022-09-09T04:20:58;6.53;;;1.60;;
31818;SDS011;18384;48.860;9.188;2022-09-09T04:25:55;6.80;;;2.40;;
31818;SDS011;18384;48.860;9.188;2022-09-09T04:28:24;9.05;;;2.42;;
31818;SDS011;18384;48.860;9.188;2022-09-09T04:30:52;6.72;;;1.67;;
31818;SDS011;18384;48.860;9.188;2022-09-09T04:33:19;4.40;;;1.45;;
31818;SDS011;18384;48.860;9.188;2022-09-09T04:35:47;6.55;;;2.10;;
31818;SDS011;18384;48.860;9.188;2022-09-09T04:38:18;7.10;;;1.70;;
31818;SDS011;18384;48.860;9.188;2022-09-09T04:40:48;4.32;;;1.55;;
31818;SDS011;18384;48.860;9.188;2022-09-09T04:43:17;5.10;;;1.42;;
31818;SDS011;18384;48.860;9.188;2022-09-09T04:45:46;5.28;;;1.70;;
31818;SDS011;18384;48.860;9.188;2022-09-09T04:48:13;9.77;;;1.30;;
31818;SDS011;18384;48.860;9.188;2022-09-09T04:50:39;10.15;;;1.75;;
31818;SDS011;18384;48.860;9.188;2022-09-09T04:53:05;7.95;;;1.95;;
31818;SDS011;18384;48.860;9.188;2022-09-09T04:55:32;7.87;;;1.50;;
31818;SDS011;18384;48.860;9.188;2022-09-09T04:58:05;5.72;;;1.58;;
31818;SDS011;18384;48.860;9.188;2022-09-09T05:00:34;5.55;;;1.50;;
31818;SDS011;18384;48.860;9.188;2022-09-09T05:03:04;6.28;;;1.37;;
31818;SDS011;18384;48.860;9.188;2022-09-09T05:05:31;6.18;;;1.62;;
31818;SDS011;18384;48.860;9.188;2022-09-09T05:08:01;3.70;;;1.30;;
31818;SDS011;18384;48.860;9.188;2022-09-09T05:10:33;5.78;;;1.23;;
31818;SDS011;18384;48.860;9.188;2022-09-09T05:13:01;6.20;;;1.35;;
31818;SDS011;18384;48.860;9.188;2022-09-09T05:15:29;5.57;;;1.90;;
31818;SDS011;18384;48.860;9.188;2022-09-09T05:17:57;7.45;;;1.62;;
31818;SDS011;18384;48.860;9.188;2022-09-09T05:20:27;7.87;;;1.50;;
31818;SDS011;18384;48.860;9.188;2022-09-09T05:22:55;5.62;;;1.62;;
31818;SDS011;18384;48.860;9.188;2022-09-09T05:25:22;4.45;;;1.50;;
31818;SDS011;18384;48.860;9.188;2022-09-09T05:27:51;5.60;;;1.10;;
31818;SDS011;18384;48.860;9.188;2022-09-09T05:30:18;7.75;;;1.67;;
31818;SDS011;18384;48.860;9.188;2022-09-09T05:32:45;10.20;;;1.30;;
31818;SDS011;18384;48.860;9.188;2022-09-09T05:35:12;5.70;;;1.48;;
31818;SDS011;18384;48.860;9.188;2022-09-09T05:37:39;5.15;;;1.27;;
31818;SDS011;18384;48.860;9.188;2022-09-09T05:40:05;4.62;;;1.30;;
31818;SDS011;18384;48.860;9.188;2022-09-09T05:42:31;8.68;;;1.87;;
31818;SDS011;18384;48.860;9.188;2022-09-09T05:44:57;7.60;;;1.50;;
31818;SDS011;18384;48.860;9.188;2022-09-09T05:47:24;6.82;;;1.50;;
31818;SDS011;18384;48.860;9.188;2022-09-09T05:49:52;7.15;;;1.20;;
31818;SDS011;18384;48.860;9.188;2022-09-09T05:52:20;4.68;;;1.27;;
31818;SDS011;18384;48.860;9.188;2022-09-09T05:54:46;9.27;;;1.20;;
31818;SDS011;18384;48.860;9.188;2022-09-09T05:57:12;5.53;;;1.23;;
31818;SDS011;18384;48.860;9.188;2022-09-09T05:59:38;8.60;;;1.83;;
31818;SDS011;18384;48.860;9.188;2022-09-09T06:02:04;4.32;;;1.00;;
31818;SDS011;18384;48.860;9.188;2022-09-09T06:04:31;9.15;;;1.40;;
31818;SDS011;18384;48.860;9.188;2022-09-09T06:06:57;5.68;;;1.33;;
31818;SDS011;18384;48.860;9.188;2022-09-09T06:09:24;5.25;;;1.48;;
31818;SDS011;18384;48.860;9.188;2022-09-09T06:14:16;6.28;;;1.02;;
31818;SDS011;18384;48.860;9.188;2022-09-09T06:16:43;5.75;;;1.40;;
31818;SDS011;18384;48.860;9.188;2022-09-09T06:19:09;6.47;;;1.27;;
31818;SDS011;18384;48.860;9.188;2022-09-09T06:21:37;5.28;;;1.45;;
31818;SDS011;18384;48.860;9.188;2022-09-09T06:24:04;14.63;;;1.27;;
31818;SDS011;18384;48.860;9.188;2022-09-09T06:26:33;7.90;;;1.42;;
31818;SDS011;18384;48.860;9.188;2022-09-09T06:29:03;4.60;;;1.30;;
31818;SDS011;18384;48.860;9.188;2022-09-09T06:31:30;6.20;;;1.48;;
31818;SDS011;18384;48.860;9.188;2022-09-09T06:34:00;7.15;;;1.40;;
31818;SDS011;18384;48.860;9.188;2022-09-09T06:36:28;8.02;;;1.20;;
31818;SDS011;18384;48.860;9.188;2022-09-09T06:38:58;13.07;;;1.55;;
31818;SDS011;18384;48.860;9.188;2022-09-09T06:41:26;10.35;;;1.23;;
31818;SDS011;18384;48.860;9.188;2022-09-09T06:43:56;5.65;;;1.48;;
31818;SDS011;18384;48.860;9.188;2022-09-09T06:48:53;5.87;;;1.25;;
31818;SDS011;18384;48.860;9.188;2022-09-09T06:51:28;8.88;;;1.50;;
31818;SDS011;18384;48.860;9.188;2022-09-09T06:54:00;9.82;;;1.30;;
31818;SDS011;18384;48.860;9.188;2022-09-09T06:56:29;10.52;;;1.85;;
31818;SDS011;18384;48.860;9.188;2022-09-09T06:58:59;6.18;;;1.15;;
31818;SDS011;18384;48.860;9.188;2022-09-09T07:01:32;5.22;;;1.30;;
31818;SDS011;18384;48.860;9.188;2022-09-09T07:04:00;10.85;;;1.55;;
31818;SDS011;18384;48.860;9.188;2022-09-09T07:06:33;9.52;;;1.37;;
31818;SDS011;18384;48.860;9.188;2022-09-09T07:09:02;4.50;;;1.15;;
31818;SDS011;18384;48.860;9.188;2022-09-09T07:11:32;8.43;;;1.00;;
31818;SDS011;18384;48.860;9.188;2022-09-09T07:14:02;3.10;;;0.75;;
31818;SDS011;18384;48.860;9.188;2022-09-09T07:16:28;3.65;;;0.82;;
31818;SDS011;18384;48.860;9.188;2022-09-09T07:18:56;3.90;;;1.05;;
31818;SDS011;18384;48.860;9.188;2022-09-09T07:21:23;2.75;;;0.90;;
31818;SDS011;18384;48.860;9.188;2022-09-09T07:23:51;5.93;;;0.98;;
31818;SDS011;18384;48.860;9.188;2022-09-09T07:26:19;10.30;;;1.23;;
31818;SDS011;18384;48.860;9.188;2022-09-09T07:28:48;6.30;;;0.75;;
31818;SDS011;18384;48.860;9.188;2022-09-09T07:31:19;10.35;;;1.40;;
31818;SDS011;18384;48.860;9.188;2022-09-09T07:33:51;8.45;;;0.88;;
31818;SDS011;18384;48.860;9.188;2022-09-09T07:36:22;5.82;;;1.08;;
31818;SDS011;18384;48.860;9.188;2022-09-09T07:39:04;2.47;;;0.73;;
31818;SDS011;18384;48.860;9.188;2022-09-09T07:41:38;2.42;;;1.02;;
31818;SDS011;18384;48.860;9.188;2022-09-09T07:44:08;7.15;;;1.17;;
31818;SDS011;18384;48.860;9.188;2022-09-09T07:46:38;6.00;;;0.90;;
31818;SDS011;18384;48.860;9.188;2022-09-09T07:49:04;7.10;;;1.10;;
31818;SDS011;18384;48.860;9.188;2022-09-09T07:51:32;3.37;;;1.15;;
31818;SDS011;18384;48.860;9.188;2022-09-09T07:54:06;7.32;;;1.05;;
31818;SDS011;18384;48.860;9.188;2022-09-09T07:56:36;5.22;;;1.08;;
31818;SDS011;18384;48.860;9.188;2022-09-09T07:59:03;7.62;;;1.20;;
31818;SDS011;18384;48.860;9.188;2022-09-09T08:01:33;6.37;;;1.12;;
31818;SDS011;18384;48.860;9.188;2022-09-09T08:04:11;3.78;;;1.08;;
31818;SDS011;18384;48.860;9.188;2022-09-09T08:06:49;4.72;;;0.85;;
31818;SDS011;18384;48.860;9.188;2022-09-09T08:09:19;4.22;;;1.00;;
31818;SDS011;18384;48.860;9.188;2022-09-09T08:11:46;3.47;;;0.82;;
31818;SDS011;18384;48.860;9.188;2022-09-09T08:14:12;2.75;;;0.80;;
31818;SDS011;18384;48.860;9.188;2022-09-09T08:16:43;6.10;;;0.95;;
31818;SDS011;18384;48.860;9.188;2022-09-09T08:19:12;4.20;;;0.98;;
31818;SDS011;18384;48.860;9.188;2022-09-09T08:21:40;6.53;;;0.90;;
31818;SDS011;18384;48.860;9.188;2022-09-09T08:24:09;5.60;;;1.35;;
31818;SDS011;18384;48.860;9.188;2022-09-09T08:26:37;6.10;;;0.62;;
31818;SDS011;18384;48.860;9.188;2022-09-09T08:29:07;3.80;;;0.95;;
31818;SDS011;18384;48.860;9.188;2022-09-09T08:31:36;7.05;;;1.12;;
31818;SDS011;18384;48.860;9.188;2022-09-09T08:34:08;6.65;;;0.88;;
31818;SDS011;18384;48.860;9.188;2022-09-09T08:36:45;2.83;;;0.80;;
31818;SDS011;18384;48.860;9.188;2022-09-09T08:39:17;5.30;;;1.08;;
31818;SDS011;18384;48.860;9.188;2022-09-09T08:52:59;4.25;;;0.77;;
31818;SDS011;18384;48.860;9.188;2022-09-09T08:56:18;5.68;;;1.00;;
31818;SDS011;18384;48.860;9.188;2022-09-09T08:58:49;3.58;;;0.70;;
31818;SDS011;18384;48.860;9.188;2022-09-09T09:02:21;4.43;;;0.90;;
31818;SDS011;18384;48.860;9.188;2022-09-09T09:05:23;4.93;;;0.62;;
31818;SDS011;18384;48.860;9.188;2022-09-09T09:08:48;15.95;;;1.10;;
31818;SDS011;18384;48.860;9.188;2022-09-09T09:11:38;4.30;;;0.77;;
31818;SDS011;18384;48.860;9.188;2022-09-09T09:14:35;3.92;;;0.70;;
31818;SDS011;18384;48.860;9.188;2022-09-09T09:17:06;3.87;;;0.70;;
31818;SDS011;18384;48.860;9.188;2022-09-09T09:19:39;4.93;;;0.80;;
31818;SDS011;18384;48.860;9.188;2022-09-09T09:22:20;1.37;;;0.60;;
31818;SDS011;18384;48.860;9.188;2022-09-09T09:25:09;5.85;;;0.85;;
31818;SDS011;18384;48.860;9.188;2022-09-09T09:28:00;2.65;;;0.80;;
31818;SDS011;18384;48.860;9.188;2022-09-09T09:30:46;4.95;;;0.90;;
31818;SDS011;18384;48.860;9.188;2022-09-09T09:33:36;7.45;;;0.90;;
31818;SDS011;18384;48.860;9.188;2022-09-09T09:36:24;6.18;;;0.80;;
31818;SDS011;18384;48.860;9.188;2022-09-09T09:39:07;7.82;;;0.98;;
31818;SDS011;18384;48.860;9.188;2022-09-09T09:41:36;4.57;;;0.90;;
31818;SDS011;18384;48.860;9.188;2022-09-09T09:44:05;11.93;;;1.23;;
31818;SDS011;18384;48.860;9.188;2022-09-09T09:47:08;10.10;;;1.15;;
31818;SDS011;18384;48.860;9.188;2022-09-09T09:49:51;5.82;;;1.10;;
31818;SDS011;18384;48.860;9.188;2022-09-09T09:52:22;5.18;;;0.98;;
31818;SDS011;18384;48.860;9.188;2022-09-09T09:54:51;5.60;;;0.75;;
31818;SDS011;18384;48.860;9.188;2022-09-09T09:57:22;5.25;;;0.57;;
31818;SDS011;18384;48.860;9.188;2022-09-09T10:00:12;8.20;;;0.77;;
31818;SDS011;18384;48.860;9.188;2022-09-09T10:02:47;6.62;;;0.52;;
31818;SDS011;18384;48.860;9.188;2022-09-09T10:05:20;4.72;;;0.68;;
31818;SDS011;18384;48.860;9.188;2022-09-09T10:08:51;5.95;;;0.62;;
31818;SDS011;18384;48.860;9.188;2022-09-09T10:11:24;7.47;;;0.73;;
31818;SDS011;18384;48.860;9.188;2022-09-09T10:14:21;4.68;;;0.73;;
31818;SDS011;18384;48.860;9.188;2022-09-09T10:17:34;4.93;;;0.50;;
31818;SDS011;18384;48.860;9.188;2022-09-09T10:32:50;2.85;;;0.70;;
31818;SDS011;18384;48.860;9.188;2022-09-09T10:36:46;7.05;;;0.80;;
31818;SDS011;18384;48.860;9.188;2022-09-09T10:39:36;8.98;;;1.58;;
31818;SDS011;18384;48.860;9.188;2022-09-09T10:42:06;2.62;;;0.47;;
31818;SDS011;18384;48.860;9.188;2022-09-09T10:44:50;4.55;;;0.45;;
31818;SDS011;18384;48.860;9.188;2022-09-09T10:47:52;7.57;;;1.17;;
31818;SDS011;18384;48.860;9.188;2022-09-09T10:58:11;2.95;;;0.75;;
31818;SDS011;18384;48.860;9.188;2022-09-09T11:00:49;3.40;;;0.70;;
31818;SDS011;18384;48.860;9.188;2022-09-09T11:03:39;4.50;;;0.93;;
31818;SDS011;18384;48.860;9.188;2022-09-09T11:06:14;8.95;;;0.70;;
31818;SDS011;18384;48.860;9.188;2022-09-09T11:08:45;7.35;;;1.15;;
31818;SDS011;18384;48.860;9.188;2022-09-09T11:11:26;2.35;;;0.52;;
31818;SDS011;18384;48.860;9.188;2022-09-09T11:14:09;8.02;;;0.90;;
31818;SDS011;18384;48.860;9.188;2022-09-09T11:16:50;4.15;;;0.80;;
31818;SDS011;18384;48.860;9.188;2022-09-09T11:19:40;4.03;;;0.68;;
31818;SDS011;18384;48.860;9.188;2022-09-09T11:25:40;14.30;;;1.30;;
31818;SDS011;18384;48.860;9.188;2022-09-09T11:28:21;3.92;;;0.85;;
31818;SDS011;18384;48.860;9.188;2022-09-09T11:43:41;6.28;;;1.30;;
31818;SDS011;18384;48.860;9.188;2022-09-09T11:46:17;4.37;;;0.70;;
31818;SDS011;18384;48.860;9.188;2022-09-09T11:49:01;6.05;;;0.80;;
31818;SDS011;18384;48.860;9.188;2022-09-09T11:51:32;5.25;;;0.80;;
31818;SDS011;18384;48.860;9.188;2022-09-09T11:54:02;3.22;;;0.35;;
31818;SDS011;18384;48.860;9.188;2022-09-09T11:57:32;4.45;;;0.50;;
31818;SDS011;18384;48.860;9.188;2022-09-09T12:00:02;3.60;;;0.50;;
31818;SDS011;18384;48.860;9.188;2022-09-09T12:02:29;0.88;;;0.40;;
31818;SDS011;18384;48.860;9.188;2022-09-09T12:05:15;2.28;;;0.40;;
31818;SDS011;18384;48.860;9.188;2022-09-09T12:07:57;2.35;;;0.40;;
31818;SDS011;18384;48.860;9.188;2022-09-09T12:10:27;2.10;;;0.45;;
31818;SDS011;18384;48.860;9.188;2022-09-09T12:13:18;0.88;;;0.30;;
31818;SDS011;18384;48.860;9.188;2022-09-09T12:15:51;2.90;;;0.47;;
31818;SDS011;18384;48.860;9.188;2022-09-09T12:18:23;3.90;;;0.55;;
31818;SDS011;18384;48.860;9.188;2022-09-09T12:21:16;1.33;;;0.40;;
31818;SDS011;18384;48.860;9.188;2022-09-09T12:24:09;1.77;;;0.30;;
31818;SDS011;18384;48.860;9.188;2022-09-09T12:26:52;2.72;;;0.43;;
31818;SDS011;18384;48.860;9.188;2022-09-09T12:30:11;2.35;;;0.37;;
31818;SDS011;18384;48.860;9.188;2022-09-09T12:32:40;1.90;;;0.30;;
31818;SDS011;18384;48.860;9.188;2022-09-09T12:35:22;4.85;;;0.60;;
31818;SDS011;18384;48.860;9.188;2022-09-09T12:38:00;3.42;;;0.45;;
31818;SDS011;18384;48.860;9.188;2022-09-09T12:40:28;4.12;;;0.47;;
31818;SDS011;18384;48.860;9.188;2022-09-09T12:43:19;5.12;;;0.40;;
31818;SDS011;18384;48.860;9.188;2022-09-09T12:45:52;4.30;;;0.30;;
31818;SDS011;18384;48.860;9.188;2022-09-09T12:48:47;5.35;;;0.52;;
31818;SDS011;18384;48.860;9.188;2022-09-09T12:51:18;6.07;;;0.50;;
31818;SDS011;18384;48.860;9.188;2022-09-09T12:53:52;1.73;;;0.30;;
31818;SDS011;18384;48.860;9.188;2022-09-09T12:56:20;1.75;;;0.35;;
31818;SDS011;18384;48.860;9.188;2022-09-09T12:58:52;1.08;;;0.25;;
31818;SDS011;18384;48.860;9.188;2022-09-09T13:01:24;4.47;;;0.45;;
31818;SDS011;18384;48.860;9.188;2022-09-09T13:04:00;2.20;;;0.60;;
31818;SDS011;18384;48.860;9.188;2022-09-09T13:06:31;2.78;;;0.60;;
31818;SDS011;18384;48.860;9.188;2022-09-09T13:08:59;2.37;;;0.70;;
31818;SDS011;18384;48.860;9.188;2022-09-09T13:14:24;3.42;;;0.65;;
31818;SDS011;18384;48.860;9.188;2022-09-09T13:17:01;2.72;;;0.50;;
31818;SDS011;18384;48.860;9.188;2022-09-09T13:19:31;4.18;;;0.43;;
31818;SDS011;18384;48.860;9.188;2022-09-09T13:22:14;3.92;;;0.52;;
31818;SDS011;18384;48.860;9.188;2022-09-09T13:25:02;6.90;;;0.50;;
31818;SDS011;18384;48.860;9.188;2022-09-09T13:28:01;1.17;;;0.40;;
31818;SDS011;18384;48.860;9.188;2022-09-09T13:30:31;3.33;;;0.30;;
31818;SDS011;18384;48.860;9.188;2022-09-09T13:35:59;6.45;;;0.57;;
31818;SDS011;18384;48.860;9.188;2022-09-09T13:38:40;5.25;;;0.40;;
31818;SDS011;18384;48.860;9.188;2022-09-09T13:41:24;6.65;;;0.50;;
31818;SDS011;18384;48.860;9.188;2022-09-09T13:44:28;2.28;;;0.35;;
31818;SDS011;18384;48.860;9.188;2022-09-09T13:47:51;3.20;;;0.27;;
31818;SDS011;18384;48.860;9.188;2022-09-09T13:50:29;2.72;;;0.55;;
31818;SDS011;18384;48.860;9.188;2022-09-09T13:52:57;3.27;;;0.40;;
31818;SDS011;18384;48.860;9.188;2022-09-09T13:55:27;2.05;;;0.50;;
31818;SDS011;18384;48.860;9.188;2022-09-09T13:57:55;3.53;;;0.60;;
31818;SDS011;18384;48.860;9.188;2022-09-09T14:00:28;3.42;;;0.60;;
31818;SDS011;18384;48.860;9.188;2022-09-09T14:02:56;3.17;;;0.40;;
31818;SDS011;18384;48.860;9.188;2022-09-09T14:05:22;3.15;;;0.50;;
31818;SDS011;18384;48.860;9.188;2022-09-09T14:07:49;1.00;;;0.40;;
31818;SDS011;18384;48.860;9.188;2022-09-09T14:10:15;2.03;;;0.45;;
31818;SDS011;18384;48.860;9.188;2022-09-09T14:15:09;2.70;;;0.60;;
31818;SDS011;18384;48.860;9.188;2022-09-09T14:17:36;3.15;;;0.52;;
31818;SDS011;18384;48.860;9.188;2022-09-09T14:20:03;3.45;;;0.50;;
31818;SDS011;18384;48.860;9.188;2022-09-09T14:22:33;1.45;;;0.32;;
31818;SDS011;18384;48.860;9.188;2022-09-09T14:25:01;3.55;;;0.70;;
31818;SDS011;18384;48.860;9.188;2022-09-09T14:27:28;3.22;;;0.47;;
31818;SDS011;18384;48.860;9.188;2022-09-09T14:29:55;2.28;;;0.37;;
31818;SDS011;18384;48.860;9.188;2022-09-09T14:32:22;4.20;;;0.62;;
31818;SDS011;18384;48.860;9.188;2022-09-09T14:34:48;3.50;;;0.60;;
31818;SDS011;18384;48.860;9.188;2022-09-09T14:39:41;6.43;;;0.60;;
31818;SDS011;18384;48.860;9.188;2022-09-09T14:42:12;2.85;;;0.52;;
31818;SDS011;18384;48.860;9.188;2022-09-09T14:44:39;1.62;;;0.40;;
31818;SDS011;18384;48.860;9.188;2022-09-09T14:47:06;3.22;;;0.43;;
31818;SDS011;18384;48.860;9.188;2022-09-09T14:49:36;3.20;;;0.70;;
31818;SDS011;18384;48.860;9.188;2022-09-09T14:52:03;2.72;;;0.35;;
31818;SDS011;18384;48.860;9.188;2022-09-09T14:54:30;1.83;;;0.43;;
31818;SDS011;18384;48.860;9.188;2022-09-09T14:56:57;3.33;;;0.52;;
31818;SDS011;18384;48.860;9.188;2022-09-09T14:59:24;3.20;;;0.37;;
31818;SDS011;18384;48.860;9.188;2022-09-09T15:04:16;2.60;;;0.40;;
31818;SDS011;18384;48.860;9.188;2022-09-09T15:06:43;4.18;;;0.52;;
31818;SDS011;18384;48.860;9.188;2022-09-09T15:09:12;0.40;;;0.20;;
31818;SDS011;18384;48.860;9.188;2022-09-09T15:14:05;2.75;;;0.65;;
31818;SDS011;18384;48.860;9.188;2022-09-09T15:16:33;0.75;;;0.20;;
31818;SDS011;18384;48.860;9.188;2022-09-09T15:19:00;2.92;;;0.30;;
31818;SDS011;18384;48.860;9.188;2022-09-09T15:21:32;1.80;;;0.45;;
31818;SDS011;18384;48.860;9.188;2022-09-09T15:24:00;3.42;;;0.32;;
31818;SDS011;18384;48.860;9.188;2022-09-09T15:28:53;1.58;;;0.35;;
31818;SDS011;18384;48.860;9.188;2022-09-09T15:31:23;3.83;;;0.30;;
31818;SDS011;18384;48.860;9.188;2022-09-09T15:34:11;1.80;;;0.30;;
31818;SDS011;18384;48.860;9.188;2022-09-09T15:36:39;1.62;;;0.30;;
31818;SDS011;18384;48.860;9.188;2022-09-09T15:39:11;2.10;;;0.30;;
31818;SDS011;18384;48.860;9.188;2022-09-09T15:41:41;3.78;;;0.62;;
31818;SDS011;18384;48.860;9.188;2022-09-09T15:44:11;3.45;;;0.82;;
31818;SDS011;18384;48.860;9.188;2022-09-09T15:46:39;1.75;;;0.40;;
31818;SDS011;18384;48.860;9.188;2022-09-09T15:49:09;3.75;;;0.35;;
31818;SDS011;18384;48.860;9.188;2022-09-09T15:51:55;2.58;;;0.57;;
31818;SDS011;18384;48.860;9.188;2022-09-09T15:54:24;1.95;;;0.50;;
31818;SDS011;18384;48.860;9.188;2022-09-09T15:56:55;5.87;;;0.47;;
31818;SDS011;18384;48.860;9.188;2022-09-09T15:59:25;2.78;;;0.40;;
31818;SDS011;18384;48.860;9.188;2022-09-09T16:01:54;3.15;;;0.35;;
31818;SDS011;18384;48.860;9.188;2022-09-09T16:04:21;1.73;;;0.52;;
31818;SDS011;18384;48.860;9.188;2022-09-09T16:06:50;2.37;;;0.62;;
31818;SDS011;18384;48.860;9.188;2022-09-09T16:09:24;1.27;;;0.40;;
31818;SDS011;18384;48.860;9.188;2022-09-09T16:11:55;1.27;;;0.40;;
31818;SDS011;18384;48.860;9.188;2022-09-09T16:14:23;7.93;;;0.73;;
31818;SDS011;18384;48.860;9.188;2022-09-09T16:16:52;5.53;;;0.65;;
31818;SDS011;18384;48.860;9.188;2022-09-09T16:19:19;8.13;;;0.73;;
31818;SDS011;18384;48.860;9.188;2022-09-09T16:26:43;0.90;;;0.32;;
31818;SDS011;18384;48.860;9.188;2022-09-09T16:29:13;5.25;;;0.30;;
31818;SDS011;18384;48.860;9.188;2022-09-09T16:31:42;4.20;;;0.25;;
31818;SDS011;18384;48.860;9.188;2022-09-09T16:34:09;3.85;;;0.40;;
31818;SDS011;18384;48.860;9.188;2022-09-09T16:36:37;1.37;;;0.50;;
31818;SDS011;18384;48.860;9.188;2022-09-09T16:39:09;7.55;;;0.62;;
31818;SDS011;18384;48.860;9.188;2022-09-09T16:41:39;8.82;;;0.40;;
31818;SDS011;18384;48.860;9.188;2022-09-09T16:44:07;4.50;;;0.80;;
31818;SDS011;18384;48.860;9.188;2022-09-09T16:46:37;1.92;;;0.52;;
31818;SDS011;18384;48.860;9.188;2022-09-09T16:49:07;7.37;;;0.50;;
31818;SDS011;18384;48.860;9.188;2022-09-09T16:51:37;3.00;;;0.40;;
31818;SDS011;18384;48.860;9.188;2022-09-09T16:54:15;5.00;;;0.43;;
31818;SDS011;18384;48.860;9.188;2022-09-09T16:56:43;2.55;;;0.60;;
31818;SDS011;18384;48.860;9.188;2022-09-09T16:59:13;2.80;;;0.43;;
31818;SDS011;18384;48.860;9.188;2022-09-09T17:01:42;2.70;;;0.70;;
31818;SDS011;18384;48.860;9.188;2022-09-09T17:04:12;1.48;;;0.40;;
31818;SDS011;18384;48.860;9.188;2022-09-09T17:06:46;1.17;;;0.30;;
31818;SDS011;18384;48.860;9.188;2022-09-09T17:09:14;2.40;;;0.40;;
31818;SDS011;18384;48.860;9.188;2022-09-09T17:11:41;1.50;;;0.30;;
31818;SDS011;18384;48.860;9.188;2022-09-09T17:14:08;1.65;;;0.50;;
31818;SDS011;18384;48.860;9.188;2022-09-09T17:16:40;3.17;;;0.40;;
31818;SDS011;18384;48.860;9.188;2022-09-09T17:19:06;1.92;;;0.40;;
31818;SDS011;18384;48.860;9.188;2022-09-09T17:21:34;3.20;;;0.35;;
31818;SDS011;18384;48.860;9.188;2022-09-09T17:24:01;2.53;;;0.30;;
31818;SDS011;18384;48.860;9.188;2022-09-09T17:26:28;1.65;;;0.30;;
31818;SDS011;18384;48.860;9.188;2022-09-09T17:28:58;1.87;;;0.50;;
31818;SDS011;18384;48.860;9.188;2022-09-09T17:31:26;7.90;;;0.30;;